createdAt,value
2023-03-23T15:59:58.170Z,350.77
2023-03-23T16:02:27.244Z,333.05
2023-03-23T16:04:54.977Z,358.80
2023-03-23T16:07:24.855Z,352.88
2023-03-23T16:09:52.498Z,357.15
2023-03-23T16:12:20.325Z,350.77
2023-03-23T16:14:48.107Z,334.77
2023-03-23T16:17:19.647Z,343.83
2023-03-23T16:19:48.953Z,317.98
2023-03-23T16:22:18.460Z,363.75
2023-03-23T16:24:46.338Z,343.33
2023-03-23T16:27:14.356Z,351.23
2023-03-23T16:30:02.399Z,347.48
2023-03-23T16:32:29.789Z,323.98
2023-03-23T16:34:58.753Z,338.55
2023-03-23T16:37:26.527Z,330.58
2023-03-23T16:39:54.196Z,352.95
2023-03-23T16:42:21.793Z,351.77
2023-03-23T16:44:50.665Z,343.50
2023-03-23T16:47:19.047Z,352.55
2023-03-23T16:49:46.813Z,348.58
2023-03-23T16:52:16.043Z,340.33
2023-03-23T16:54:43.811Z,349.70
2023-03-23T16:57:11.575Z,360.52
2023-03-23T16:59:39.297Z,344.98
2023-03-23T17:02:06.961Z,339.67
2023-03-23T17:04:35.250Z,346.63
2023-03-23T17:07:03.154Z,355.80
2023-03-23T17:09:32.333Z,354.70
2023-03-23T17:12:00.260Z,359.95
2023-03-23T17:14:27.888Z,357.63
2023-03-23T17:16:56.707Z,357.15
2023-03-23T17:19:24.567Z,346.88
2023-03-23T17:21:52.474Z,365.42
2023-03-23T17:24:20.308Z,348.58
2023-03-23T17:26:49.235Z,355.85
2023-03-23T17:29:16.973Z,348.00
2023-03-23T17:31:44.737Z,309.42
2023-03-23T17:34:12.442Z,327.33
2023-03-23T17:36:40.128Z,337.02
2023-03-23T17:39:07.811Z,336.80
2023-03-23T17:41:35.711Z,344.85
2023-03-23T17:44:04.817Z,356.92
2023-03-23T17:46:32.549Z,342.15
2023-03-23T17:49:00.169Z,347.10
2023-03-23T17:51:27.941Z,341.05
2023-03-23T17:53:55.864Z,355.25
2023-03-23T17:56:23.935Z,340.45
2023-03-23T17:58:51.721Z,342.95
2023-03-23T18:01:20.943Z,355.08
2023-03-23T18:03:48.738Z,337.63
2023-03-23T18:06:16.492Z,321.77
2023-03-23T18:08:44.579Z,335.27
2023-03-23T18:11:12.266Z,341.75
2023-03-23T18:13:40.436Z,325.67
2023-03-23T18:16:08.995Z,325.92
2023-03-23T18:18:38.067Z,317.13
2023-03-23T18:21:08.499Z,329.95
2023-03-23T18:23:46.064Z,322.73
2023-03-23T18:26:17.904Z,316.27
2023-03-23T18:28:45.693Z,335.17
2023-03-23T18:31:16.909Z,320.90
2023-03-23T18:33:49.462Z,316.33
2023-03-23T18:36:20.093Z,342.20
2023-03-23T18:38:48.763Z,315.42
2023-03-23T18:41:18.068Z,314.70
2023-03-23T18:43:46.085Z,310.98
2023-03-23T18:46:14.231Z,312.55
2023-03-23T18:48:42.045Z,316.00
2023-03-23T18:51:11.808Z,305.60
2023-03-23T18:53:39.954Z,303.95
2023-03-23T18:56:10.526Z,312.00
2023-03-23T18:58:39.360Z,295.38
2023-03-23T19:01:09.074Z,303.55
2023-03-23T19:03:37.950Z,301.20
2023-03-23T19:06:07.029Z,313.60
2023-03-23T19:08:36.036Z,315.45
2023-03-23T19:11:05.810Z,311.98
2023-03-23T19:13:36.878Z,322.38
2023-03-23T19:16:05.721Z,299.55
2023-03-23T19:18:34.091Z,308.60
2023-03-23T19:23:32.460Z,302.30
2023-03-23T19:26:01.733Z,291.58
2023-03-23T19:31:00.198Z,304.55
2023-03-23T19:33:27.989Z,303.00
2023-03-23T19:36:06.739Z,313.05
2023-03-23T19:38:37.727Z,311.55
2023-03-23T19:41:07.263Z,322.33
2023-03-23T19:43:36.288Z,311.30
2023-03-23T19:46:05.412Z,299.38
2023-03-23T19:48:33.179Z,325.33
2023-03-23T19:51:01.525Z,313.63
2023-03-23T19:53:29.190Z,302.25
2023-03-23T19:55:57.010Z,324.35
2023-03-23T19:58:27.184Z,284.35
2023-03-23T20:00:54.885Z,305.20
2023-03-23T20:03:22.764Z,313.63
2023-03-23T20:05:50.729Z,323.92
2023-03-23T20:08:18.577Z,329.23
2023-03-23T20:10:46.194Z,345.95
2023-03-23T20:13:13.866Z,328.05
2023-03-23T20:15:42.969Z,329.42
2023-03-23T20:18:14.422Z,321.40
2023-03-23T20:20:42.140Z,312.48
2023-03-23T20:23:09.800Z,328.98
2023-03-23T20:25:37.464Z,333.27
2023-03-23T20:28:06.147Z,332.40
2023-03-23T20:30:34.407Z,317.88
2023-03-23T20:33:03.475Z,322.40
2023-03-23T20:35:31.823Z,312.60
2023-03-23T20:38:00.147Z,321.15
2023-03-23T20:40:27.759Z,331.10
2023-03-23T20:42:57.714Z,319.52
2023-03-23T20:45:25.736Z,315.90
2023-03-23T20:47:54.025Z,311.70
2023-03-23T20:50:23.033Z,314.05
2023-03-23T20:52:50.852Z,305.45
2023-03-23T20:55:18.938Z,284.38
2023-03-23T20:57:46.937Z,281.92
2023-03-23T21:00:17.882Z,286.65
2023-03-23T21:02:49.443Z,273.30
2023-03-23T21:05:17.157Z,264.55
2023-03-23T21:07:46.677Z,263.33
2023-03-23T21:10:14.386Z,283.45
2023-03-23T21:12:42.012Z,267.15
2023-03-23T21:15:10.039Z,256.67
2023-03-23T21:17:37.763Z,260.08
2023-03-23T21:20:08.130Z,260.27
2023-03-23T21:22:35.936Z,246.52
2023-03-23T21:25:05.653Z,263.20
2023-03-23T21:27:33.398Z,258.92
2023-03-23T21:30:01.173Z,254.00
2023-03-23T21:32:28.989Z,264.75
2023-03-23T21:34:58.707Z,239.48
2023-03-23T21:37:26.342Z,240.57
2023-03-23T21:39:54.019Z,236.93
2023-03-23T21:42:30.277Z,238.43
2023-03-23T21:44:58.116Z,245.77
2023-03-23T21:47:26.462Z,227.70
2023-03-23T21:49:56.528Z,230.02
2023-03-23T21:52:24.507Z,229.85
2023-03-23T21:54:52.658Z,249.10
2023-03-23T21:57:21.262Z,224.88
2023-03-23T21:59:50.394Z,240.32
2023-03-23T22:02:18.127Z,218.20
2023-03-23T22:04:46.039Z,232.73
2023-03-23T22:07:14.340Z,237.55
2023-03-23T22:09:44.795Z,228.80
2023-03-23T22:12:13.250Z,240.13
2023-03-23T22:14:41.123Z,233.00
2023-03-23T22:17:10.271Z,236.20
2023-03-23T22:19:39.291Z,242.60
2023-03-23T22:22:07.186Z,226.27
2023-03-23T22:24:35.059Z,221.25
2023-03-23T22:27:02.858Z,230.05
2023-03-23T22:29:30.649Z,220.50
2023-03-23T22:31:58.846Z,214.40
2023-03-23T22:34:28.029Z,228.63
2023-03-23T22:36:56.328Z,225.85
2023-03-23T22:39:24.324Z,226.18
2023-03-23T22:41:52.097Z,244.95
2023-03-23T22:44:20.076Z,229.52
2023-03-23T22:46:47.855Z,231.85
2023-03-23T22:49:15.762Z,236.38
2023-03-23T22:51:45.508Z,227.57
2023-03-23T22:54:13.382Z,242.27
2023-03-23T22:56:41.136Z,264.95
2023-03-23T22:59:09.165Z,235.18
2023-03-23T23:01:37.112Z,231.68
2023-03-23T23:04:05.212Z,259.27
2023-03-23T23:06:33.039Z,249.35
2023-03-23T23:09:02.954Z,236.23
2023-03-23T23:11:31.313Z,239.60
2023-03-23T23:13:59.156Z,232.45
2023-03-23T23:16:27.627Z,242.77
2023-03-23T23:18:55.920Z,239.27
2023-03-23T23:21:25.995Z,236.63
2023-03-23T23:23:54.279Z,236.23
2023-03-23T23:26:23.624Z,221.82
2023-03-23T23:28:51.883Z,229.60
2023-03-23T23:31:26.106Z,226.93
2023-03-23T23:33:55.510Z,233.88
2023-03-23T23:36:23.299Z,220.85
2023-03-23T23:38:51.474Z,226.50
2023-03-23T23:41:19.239Z,209.40
2023-03-23T23:43:48.402Z,237.30
2023-03-23T23:46:16.203Z,232.32
2023-03-23T23:48:45.010Z,233.27
2023-03-23T23:51:15.223Z,215.93
2023-03-23T23:53:44.060Z,227.73
2023-03-23T23:56:13.663Z,242.55
2023-03-23T23:58:41.416Z,240.20
